KUIN/UIN METAR and TAF weather

Enter ICAO airport designator
Station Type Date Time Source
KUIN METAR 2019/04/20 17:54 UTC NOAA

KUIN 201754Z AUTO VRB04KT 10SM CLR 17/M03 A2992 RMK AO2 SLP131 T01721033 10172 20033 58010


Station Type Date Time Source
KUIN Decoded METAR 2019/04/20 17:54 UTC NOAA

QUINCY MUNI. BALDWIN FIELD, IL, United States (KUIN) 39-56N 091-12W
Apr 20, 2019 - 01:54 PM EDT / 2019.04.20 1754 UTC
Wind: Variable at 5 MPH (4 KT):0
Visibility: 10 mile(s):0
Sky conditions: clear
Temperature: 63.0 F (17.2 C)
Dew Point: 26.1 F (-3.3 C)
Relative Humidity: 24%
Pressure (altimeter): 29.92 in. Hg (1013 hPa)
Pressure tendency: 0.03 inches (1.0 hPa) lower than three hours ago
ob: KUIN 201754Z AUTO VRB04KT 10SM CLR 17/M03 A2992 RMK AO2 SLP131 T01721033 10172 20033 58010
cycle: 18

Station Type Date Time Source
KUIN TAF 2019/04/20 18:24 UTC NOAA

TAF KUIN 201722Z 2018/2118 33009KT P6SM SKC
FM202200 29007KT P6SM SKC
FM210100 VRB03KT P6SM SKC
FM211300 17011KT P6SM SKC

Example: see airport list